Time;durP1;ratioP1;P1;durP2;ratioP2;P2;SDS_P1;SDS_P2;PMS_P1;PMS_P2;Temp;Humidity;BMP_temperature;BMP_pressure;BME280_temperature;BME280_humidity;BME280_pressure;Samples;Min_cycle;Max_cycle;Signal;HPM_P1;HPM_P2
2022/08/11 00:00:22;;;;;;;3.63;1.93;;;;;;;;;;5085680;28;20514;-69
2022/08/11 00:02:50;;;;;;;3.60;2.40;;;;;;;;;;5074699;28;20464;-69
2022/08/11 00:05:18;;;;;;;3.47;1.90;;;;;;;;;;5073586;28;20495;-70
2022/08/11 00:07:48;;;;;;;2.50;1.77;;;;;;;;;;5073976;28;20900;-70
2022/08/11 00:10:16;;;;;;;3.30;1.70;;;;;;;;;;5074578;28;20710;-69
2022/08/11 00:12:43;;;;;;;4.50;2.10;;;;;;;;;;5073182;28;20465;-70
2022/08/11 00:15:11;;;;;;;4.73;2.60;;;;;;;;;;5074078;28;20468;-69
2022/08/11 00:17:39;;;;;;;2.80;1.67;;;;;;;;;;5073433;28;20740;-69
2022/08/11 00:20:08;;;;;;;4.60;2.00;;;;;;;;;;5073760;28;20525;-69
2022/08/11 00:22:35;;;;;;;4.63;2.30;;;;;;;;;;5073921;28;20495;-69
2022/08/11 00:25:09;;;;;;;3.10;2.20;;;;;;;;;;5074094;28;20523;-70
2022/08/11 00:27:37;;;;;;;6.40;2.43;;;;;;;;;;5074238;28;20468;-69
2022/08/11 00:30:05;;;;;;;5.17;2.30;;;;;;;;;;5072830;28;20946;-69
2022/08/11 00:32:32;;;;;;;4.03;2.03;;;;;;;;;;5074276;28;20483;-69
2022/08/11 00:35:01;;;;;;;4.40;2.57;;;;;;;;;;5073735;28;20510;-69
2022/08/11 00:37:30;;;;;;;2.67;1.77;;;;;;;;;;5073560;28;20916;-69
2022/08/11 00:39:57;;;;;;;3.50;1.67;;;;;;;;;;5073757;28;20459;-68
2022/08/11 00:42:28;;;;;;;4.97;2.13;;;;;;;;;;5074696;28;20472;-69
2022/08/11 00:45:04;;;;;;;5.30;2.20;;;;;;;;;;5073216;28;20510;-69
2022/08/11 00:47:40;;;;;;;4.27;2.40;;;;;;;;;;5073355;28;20466;-69
2022/08/11 00:50:14;;;;;;;4.17;2.63;;;;;;;;;;5074051;28;20801;-69
2022/08/11 00:53:06;;;;;;;4.67;2.00;;;;;;;;;;5073617;28;20733;-69
2022/08/11 00:55:50;;;;;;;3.60;1.90;;;;;;;;;;5075128;28;20444;-68
2022/08/11 00:58:35;;;;;;;5.20;2.27;;;;;;;;;;5073484;28;20507;-69
2022/08/11 01:01:08;;;;;;;5.70;2.63;;;;;;;;;;5072735;28;20464;-68
2022/08/11 01:03:45;;;;;;;3.60;1.87;;;;;;;;;;5073652;28;20452;-68
2022/08/11 01:06:28;;;;;;;5.13;2.20;;;;;;;;;;5072513;28;20487;-69
2022/08/11 01:09:16;;;;;;;4.57;2.03;;;;;;;;;;5073996;28;20452;-69
2022/08/11 01:12:02;;;;;;;4.83;1.90;;;;;;;;;;5073689;28;20455;-68
2022/08/11 01:14:47;;;;;;;6.80;2.30;;;;;;;;;;5074002;28;20543;-70
2022/08/11 01:17:29;;;;;;;4.27;2.07;;;;;;;;;;5073738;28;20547;-68
2022/08/11 01:20:10;;;;;;;3.37;1.90;;;;;;;;;;5070907;28;20472;-69
2022/08/11 01:22:52;;;;;;;3.20;2.40;;;;;;;;;;5072809;28;20464;-68
2022/08/11 01:25:40;;;;;;;3.53;2.47;;;;;;;;;;5072235;28;20628;-70
2022/08/11 01:28:24;;;;;;;5.80;2.30;;;;;;;;;;5072739;28;20460;-70
2022/08/11 01:31:10;;;;;;;6.23;2.63;;;;;;;;;;5073356;28;20463;-70
2022/08/11 01:33:52;;;;;;;5.10;2.13;;;;;;;;;;5072924;28;20463;-70
2022/08/11 01:36:39;;;;;;;6.73;2.50;;;;;;;;;;5072869;28;20711;-70
2022/08/11 01:39:15;;;;;;;4.17;2.00;;;;;;;;;;5072600;28;20475;-70
2022/08/11 01:44:52;;;;;;;4.70;2.27;;;;;;;;;;5072055;28;20506;-70
2022/08/11 01:50:16;;;;;;;5.07;2.50;;;;;;;;;;5073388;28;20986;-69
2022/08/11 01:52:55;;;;;;;3.80;2.30;;;;;;;;;;5073198;28;20567;-69
2022/08/11 01:55:25;;;;;;;4.53;2.50;;;;;;;;;;5071524;28;20742;-70
2022/08/11 01:57:55;;;;;;;2.67;2.00;;;;;;;;;;5072321;28;20467;-69
2022/08/11 02:00:27;;;;;;;6.30;2.87;;;;;;;;;;5072049;28;20459;-69
2022/08/11 02:03:02;;;;;;;3.90;2.33;;;;;;;;;;5072592;28;20713;-70
2022/08/11 02:05:47;;;;;;;4.00;2.30;;;;;;;;;;5071235;28;20522;-70
2022/08/11 02:08:23;;;;;;;2.70;2.10;;;;;;;;;;5072977;28;20852;-69
2022/08/11 02:13:42;;;;;;;7.80;2.50;;;;;;;;;;5072509;28;20482;-69
2022/08/11 02:16:17;;;;;;;7.60;2.90;;;;;;;;;;5073073;28;20599;-69
2022/08/11 02:24:30;;;;;;;4.03;2.50;;;;;;;;;;5039864;28;20451;-69
2022/08/11 02:27:01;;;;;;;3.90;2.47;;;;;;;;;;5073352;28;20961;-70
2022/08/11 02:29:33;;;;;;;5.33;2.80;;;;;;;;;;5070607;28;20623;-70
2022/08/11 02:34:55;;;;;;;5.33;2.50;;;;;;;;;;5071825;28;20447;-70
2022/08/11 02:37:27;;;;;;;3.47;2.03;;;;;;;;;;5071193;28;20441;-69
2022/08/11 02:40:02;;;;;;;4.93;2.87;;;;;;;;;;5072052;28;20472;-69
2022/08/11 02:42:31;;;;;;;4.33;3.27;;;;;;;;;;5072010;28;20491;-69
2022/08/11 02:45:07;;;;;;;7.80;2.83;;;;;;;;;;5072485;28;20751;-70
2022/08/11 02:47:37;;;;;;;6.10;2.57;;;;;;;;;;5072104;28;20440;-70
2022/08/11 02:50:11;;;;;;;4.70;2.43;;;;;;;;;;5089262;28;20466;-69
2022/08/11 02:52:46;;;;;;;3.47;2.50;;;;;;;;;;5092201;28;20454;-70
2022/08/11 02:55:22;;;;;;;3.40;2.50;;;;;;;;;;5093149;28;20517;-69
2022/08/11 02:57:53;;;;;;;4.20;2.60;;;;;;;;;;5092431;28;20446;-70
2022/08/11 03:00:21;;;;;;;6.27;2.70;;;;;;;;;;5092652;28;20536;-69
2022/08/11 03:02:52;;;;;;;3.30;2.20;;;;;;;;;;5091649;28;20547;-69
2022/08/11 03:05:24;;;;;;;3.70;1.97;;;;;;;;;;5092244;28;20495;-70
2022/08/11 03:08:05;;;;;;;4.90;2.47;;;;;;;;;;5093980;28;20443;-69
2022/08/11 03:10:37;;;;;;;3.30;2.67;;;;;;;;;;5095052;28;20466;-69
2022/08/11 03:18:57;;;;;;;3.13;2.40;;;;;;;;;;5095144;28;20890;-69
2022/08/11 03:21:26;;;;;;;3.93;2.70;;;;;;;;;;5094476;28;20448;-69
2022/08/11 03:24:09;;;;;;;3.90;2.90;;;;;;;;;;5094844;28;20440;-69
2022/08/11 03:26:40;;;;;;;4.37;2.67;;;;;;;;;;5095253;28;20487;-69
2022/08/11 03:29:09;;;;;;;5.30;2.30;;;;;;;;;;5094658;28;20444;-69
2022/08/11 03:31:44;;;;;;;8.00;2.20;;;;;;;;;;5094996;28;20735;-69
2022/08/11 03:34:15;;;;;;;5.23;2.80;;;;;;;;;;5095409;28;20867;-69
2022/08/11 03:36:54;;;;;;;8.23;3.03;;;;;;;;;;5095592;28;20727;-69
2022/08/11 03:39:24;;;;;;;4.87;3.03;;;;;;;;;;5094766;28;20463;-70
2022/08/11 03:41:56;;;;;;;5.73;2.63;;;;;;;;;;5095166;28;20454;-70
2022/08/11 03:44:35;;;;;;;3.53;2.53;;;;;;;;;;5094386;28;20789;-69
2022/08/11 03:47:22;;;;;;;4.13;2.60;;;;;;;;;;5095797;28;20474;-69
2022/08/11 03:49:57;;;;;;;5.20;2.47;;;;;;;;;;5088527;28;20887;-69
2022/08/11 03:52:29;;;;;;;4.73;2.87;;;;;;;;;;5094333;28;20447;-69
2022/08/11 03:55:06;;;;;;;7.07;2.93;;;;;;;;;;5095082;28;20620;-69
2022/08/11 03:57:48;;;;;;;5.17;3.03;;;;;;;;;;5094984;28;20471;-69
2022/08/11 04:00:39;;;;;;;3.27;2.90;;;;;;;;;;5094856;28;20554;-69
2022/08/11 04:03:24;;;;;;;5.10;2.73;;;;;;;;;;5094110;28;20458;-69
2022/08/11 04:06:18;;;;;;;7.40;3.03;;;;;;;;;;5095359;28;20757;-69
2022/08/11 04:09:09;;;;;;;6.23;2.87;;;;;;;;;;5094860;28;20459;-69
2022/08/11 04:11:58;;;;;;;5.97;3.00;;;;;;;;;;5095671;28;20844;-69
2022/08/11 04:17:37;;;;;;;6.00;2.40;;;;;;;;;;5094504;28;20431;-69
2022/08/11 04:20:19;;;;;;;6.27;3.00;;;;;;;;;;5093439;28;20467;-69
2022/08/11 04:22:54;;;;;;;5.73;2.77;;;;;;;;;;5090825;28;20786;-69
2022/08/11 04:25:29;;;;;;;5.77;2.77;;;;;;;;;;5093993;28;20663;-69
2022/08/11 04:28:08;;;;;;;6.83;2.63;;;;;;;;;;5095267;28;20451;-70
2022/08/11 04:30:52;;;;;;;4.23;3.00;;;;;;;;;;5094364;28;20447;-69
2022/08/11 04:33:40;;;;;;;5.93;2.80;;;;;;;;;;5095011;28;20490;-69
2022/08/11 04:36:16;;;;;;;8.67;2.57;;;;;;;;;;5067378;28;20516;-69
2022/08/11 04:38:57;;;;;;;6.57;3.70;;;;;;;;;;5094248;28;20961;-69
2022/08/11 04:43:19;;;;;;;5.57;3.10;;;;;;;;;;5093240;28;20466;-69
2022/08/11 04:44:38;;;;;;;128.43;17.83;;;;;;;;;;5093385;28;20775;-69
2022/08/11 05:01:39;;;;;;;6.17;3.23;;;;;;;;;;5094009;28;20532;-69
2022/08/11 05:02:00;;;;;;;6.50;3.20;;;;;;;;;;5091379;28;20533;-69
2022/08/11 05:07:52;;;;;;;7.13;2.90;;;;;;;;;;5094033;28;20473;-69
2022/08/11 05:10:35;;;;;;;9.13;3.30;;;;;;;;;;5093286;28;20451;-70
2022/08/11 05:35:37;;;;;;;13.87;3.90;;;;;;;;;;5093977;28;20543;-71
2022/08/11 05:57:47;;;;;;;4.50;3.00;;;;;;;;;;5091134;28;20442;-71
2022/08/11 06:00:16;;;;;;;9.77;2.70;;;;;;;;;;5091484;28;20451;-70
2022/08/11 06:02:44;;;;;;;6.37;2.80;;;;;;;;;;5090073;28;20460;-71
2022/08/11 06:05:12;;;;;;;6.47;3.60;;;;;;;;;;5090098;28;20479;-71
2022/08/11 06:07:40;;;;;;;8.80;3.37;;;;;;;;;;5091876;28;20790;-71
2022/08/11 06:10:08;;;;;;;6.10;2.87;;;;;;;;;;5092059;28;20572;-71
2022/08/11 06:12:36;;;;;;;5.97;2.60;;;;;;;;;;5090845;28;20448;-71
2022/08/11 06:15:05;;;;;;;6.97;3.37;;;;;;;;;;5091362;28;20931;-71
2022/08/11 06:17:34;;;;;;;5.90;2.87;;;;;;;;;;5090485;28;20455;-71
2022/08/11 06:20:04;;;;;;;4.50;3.30;;;;;;;;;;5089968;28;20451;-71
2022/08/11 06:22:32;;;;;;;7.53;3.40;;;;;;;;;;5072536;28;20467;-70
2022/08/11 06:25:01;;;;;;;9.60;3.40;;;;;;;;;;5072552;28;20528;-70
2022/08/11 06:27:30;;;;;;;9.37;4.77;;;;;;;;;;5073473;28;20464;-71
2022/08/11 06:30:00;;;;;;;10.90;6.13;;;;;;;;;;5071790;28;20460;-70
2022/08/11 06:32:28;;;;;;;5.93;3.27;;;;;;;;;;5070165;28;20467;-71
2022/08/11 06:35:19;;;;;;;9.23;4.77;;;;;;;;;;5072086;28;20482;-72
2022/08/11 06:37:54;;;;;;;6.27;3.80;;;;;;;;;;5082352;28;20589;-71
2022/08/11 06:40:28;;;;;;;4.07;2.50;;;;;;;;;;5096646;28;20698;-71
2022/08/11 06:43:00;;;;;;;4.93;3.50;;;;;;;;;;5093357;28;20458;-71
2022/08/11 06:45:31;;;;;;;7.30;3.50;;;;;;;;;;5095774;28;20486;-70
2022/08/11 06:48:00;;;;;;;9.10;4.00;;;;;;;;;;5095322;28;20857;-71
2022/08/11 06:53:15;;;;;;;5.20;2.90;;;;;;;;;;5095224;28;20509;-71
2022/08/11 07:01:21;;;;;;;4.30;2.20;;;;;;;;;;5075156;28;20495;-71
2022/08/11 07:03:50;;;;;;;4.57;3.00;;;;;;;;;;5074898;28;20452;-70
2022/08/11 07:06:33;;;;;;;4.03;2.33;;;;;;;;;;5074240;28;20582;-71
2022/08/11 07:15:41;;;;;;;4.77;2.40;;;;;;;;;;5031128;28;20450;-71
2022/08/11 07:29:27;;;;;;;4.47;2.20;;;;;;;;;;5090382;28;20748;-71
2022/08/11 07:31:55;;;;;;;3.30;2.60;;;;;;;;;;5086160;28;20715;-71
2022/08/11 07:34:26;;;;;;;12.97;2.57;;;;;;;;;;5081845;28;20463;-70
2022/08/11 07:36:55;;;;;;;14.93;4.97;;;;;;;;;;5077594;28;20536;-70
2022/08/11 07:39:23;;;;;;;8.90;3.17;;;;;;;;;;5094918;28;20443;-70
2022/08/11 07:41:53;;;;;;;5.90;2.50;;;;;;;;;;5106491;28;20458;-72
2022/08/11 07:44:27;;;;;;;3.70;2.53;;;;;;;;;;5113837;28;20458;-71
2022/08/11 07:52:31;;;;;;;4.53;2.27;;;;;;;;;;5070802;28;20504;-71
2022/08/11 07:54:59;;;;;;;3.83;2.67;;;;;;;;;;5085757;28;21200;-71
2022/08/11 08:19:38;;;;;;;4.67;2.33;;;;;;;;;;5076709;28;20509;-70
2022/08/11 08:22:05;;;;;;;4.90;3.10;;;;;;;;;;5085134;28;20472;-71
2022/08/11 08:24:33;;;;;;;4.87;1.87;;;;;;;;;;5086094;28;20456;-71
2022/08/11 08:27:12;;;;;;;3.00;2.40;;;;;;;;;;5081274;28;20494;-70
2022/08/11 08:32:26;;;;;;;6.60;4.03;;;;;;;;;;5073258;28;20455;-70
2022/08/11 08:34:55;;;;;;;4.50;3.50;;;;;;;;;;5077206;28;20556;-70
2022/08/11 08:37:26;;;;;;;5.83;3.20;;;;;;;;;;5089033;28;20467;-70
2022/08/11 08:39:54;;;;;;;2.87;1.93;;;;;;;;;;5089207;28;20459;-69
2022/08/11 08:42:25;;;;;;;5.63;3.03;;;;;;;;;;5088060;28;20508;-69
2022/08/11 08:44:55;;;;;;;7.10;2.30;;;;;;;;;;5075282;28;20567;-70
2022/08/11 08:47:25;;;;;;;5.10;3.10;;;;;;;;;;5079809;28;20471;-70
2022/08/11 08:49:59;;;;;;;4.80;2.10;;;;;;;;;;5086649;28;20467;-71
2022/08/11 08:52:29;;;;;;;4.80;2.40;;;;;;;;;;5072074;28;20456;-70
2022/08/11 08:54:58;;;;;;;5.53;3.03;;;;;;;;;;5083446;28;20822;-70
2022/08/11 08:57:28;;;;;;;3.33;2.27;;;;;;;;;;5086281;28;20459;-70
2022/08/11 08:59:55;;;;;;;11.27;8.10;;;;;;;;;;5071621;28;20869;-70
2022/08/11 09:02:25;;;;;;;4.23;2.10;;;;;;;;;;5081440;28;20824;-71
2022/08/11 09:04:54;;;;;;;6.47;2.50;;;;;;;;;;5082905;28;20888;-69
2022/08/11 09:07:25;;;;;;;3.10;2.10;;;;;;;;;;5091290;28;20527;-69
2022/08/11 09:09:57;;;;;;;3.80;2.10;;;;;;;;;;5089533;28;20743;-71
2022/08/11 09:12:28;;;;;;;3.97;2.40;;;;;;;;;;5089516;28;20491;-69
2022/08/11 09:15:04;;;;;;;4.20;2.57;;;;;;;;;;5089290;28;20459;-69
2022/08/11 09:17:33;;;;;;;6.00;2.03;;;;;;;;;;5086456;28;20561;-69
2022/08/11 09:20:01;;;;;;;4.80;2.30;;;;;;;;;;5101964;28;20459;-71
2022/08/11 09:28:01;;;;;;;5.50;2.60;;;;;;;;;;5092806;28;20606;-70
2022/08/11 09:30:29;;;;;;;3.37;1.90;;;;;;;;;;5111992;28;20537;-70
2022/08/11 09:32:59;;;;;;;3.27;2.43;;;;;;;;;;5096099;28;20447;-70
2022/08/11 09:35:29;;;;;;;3.60;2.50;;;;;;;;;;5105947;28;20448;-71
2022/08/11 09:40:49;;;;;;;3.23;2.23;;;;;;;;;;5095336;28;20511;-70
2022/08/11 09:46:03;;;;;;;4.53;2.00;;;;;;;;;;5086408;28;20475;-70
2022/08/11 09:48:32;;;;;;;6.30;2.10;;;;;;;;;;5082930;28;20738;-71
2022/08/11 09:51:02;;;;;;;5.17;2.90;;;;;;;;;;5084411;28;20463;-71
2022/08/11 09:53:40;;;;;;;4.60;2.50;;;;;;;;;;5093552;28;20638;-72
2022/08/11 09:58:56;;;;;;;5.00;3.10;;;;;;;;;;5087156;28;21206;-71
2022/08/11 10:01:28;;;;;;;6.27;2.53;;;;;;;;;;5090491;28;21067;-71
2022/08/11 10:03:59;;;;;;;2.90;1.93;;;;;;;;;;5083520;28;20496;-70
2022/08/11 10:09:19;;;;;;;3.27;2.10;;;;;;;;;;5082575;28;20741;-72
2022/08/11 10:11:47;;;;;;;2.50;1.77;;;;;;;;;;5073591;28;20478;-71
2022/08/11 10:17:09;;;;;;;2.97;2.23;;;;;;;;;;5079715;28;20462;-72
2022/08/11 10:19:37;;;;;;;3.70;2.07;;;;;;;;;;5085348;28;20460;-72
2022/08/11 10:28:00;;;;;;;4.50;2.70;;;;;;;;;;5083407;28;20462;-72
2022/08/11 10:35:59;;;;;;;4.93;2.80;;;;;;;;;;5084244;28;20975;-73
2022/08/11 10:38:27;;;;;;;4.03;2.20;;;;;;;;;;5089245;28;20452;-73
2022/08/11 10:43:40;;;;;;;6.80;2.50;;;;;;;;;;5082634;28;20788;-69
2022/08/11 10:49:06;;;;;;;6.70;3.50;;;;;;;;;;5032498;28;21186;-70
2022/08/11 10:59:53;;;;;;;5.63;3.70;;;;;;;;;;5086633;28;20458;-71
2022/08/11 11:02:21;;;;;;;9.10;2.50;;;;;;;;;;5085179;28;20464;-71
2022/08/11 11:05:00;;;;;;;3.37;2.23;;;;;;;;;;5092467;28;20791;-72
2022/08/11 11:07:37;;;;;;;4.43;2.10;;;;;;;;;;5088739;28;20489;-73
2022/08/11 11:10:08;;;;;;;3.27;2.00;;;;;;;;;;5088296;28;20471;-72
2022/08/11 11:18:37;;;;;;;4.47;2.90;;;;;;;;;;5051900;28;20462;-72
2022/08/11 11:21:06;;;;;;;3.93;2.80;;;;;;;;;;5095676;28;20467;-71
2022/08/11 11:23:38;;;;;;;2.70;1.90;;;;;;;;;;5093816;28;20456;-71
2022/08/11 11:26:26;;;;;;;4.33;2.17;;;;;;;;;;5094975;28;20481;-71
2022/08/11 11:29:08;;;;;;;3.40;2.30;;;;;;;;;;5091294;28;20550;-71
2022/08/11 11:31:46;;;;;;;3.43;1.87;;;;;;;;;;5076299;28;20859;-69
2022/08/11 11:34:18;;;;;;;2.90;2.10;;;;;;;;;;5086242;28;20524;-69
2022/08/11 11:36:57;;;;;;;12.23;2.23;;;;;;;;;;5082118;28;20455;-69
2022/08/11 11:39:26;;;;;;;3.67;2.50;;;;;;;;;;5091123;28;21099;-71
2022/08/11 11:41:55;;;;;;;4.07;2.60;;;;;;;;;;5094130;28;20538;-69
2022/08/11 11:44:24;;;;;;;6.23;4.00;;;;;;;;;;5088248;28;20499;-70
2022/08/11 11:46:55;;;;;;;22.63;20.27;;;;;;;;;;5082755;28;20475;-70
2022/08/11 11:49:28;;;;;;;2.67;2.13;;;;;;;;;;5089349;28;20494;-70
2022/08/11 11:52:01;;;;;;;3.10;2.07;;;;;;;;;;5090842;28;21062;-70
2022/08/11 11:54:35;;;;;;;3.63;2.37;;;;;;;;;;5089730;28;20468;-70
2022/08/11 12:02:44;;;;;;;3.53;1.87;;;;;;;;;;5077313;28;20625;-70
2022/08/11 12:05:16;;;;;;;3.50;2.30;;;;;;;;;;5091741;28;20499;-70
2022/08/11 12:10:32;;;;;;;2.57;2.00;;;;;;;;;;5086252;28;20478;-70
2022/08/11 12:15:46;;;;;;;4.90;2.00;;;;;;;;;;5081136;28;21121;-70
2022/08/11 12:18:14;;;;;;;13.17;2.70;;;;;;;;;;5082950;28;20545;-70
2022/08/11 12:20:43;;;;;;;8.03;1.97;;;;;;;;;;5091997;28;20552;-70
2022/08/11 12:28:48;;;;;;;3.40;1.90;;;;;;;;;;5081513;28;20474;-69
2022/08/11 12:31:15;;;;;;;2.53;1.67;;;;;;;;;;5079370;28;20941;-69
2022/08/11 12:33:44;;;;;;;5.00;1.70;;;;;;;;;;5049880;28;20474;-69
2022/08/11 12:36:15;;;;;;;4.50;2.70;;;;;;;;;;5051240;28;20861;-69
2022/08/11 12:38:44;;;;;;;2.97;1.73;;;;;;;;;;5038002;28;20528;-69
2022/08/11 12:46:46;;;;;;;3.43;2.33;;;;;;;;;;5046683;28;20534;-69
2022/08/11 12:52:08;;;;;;;3.37;1.73;;;;;;;;;;5051642;28;20480;-69
2022/08/11 12:54:40;;;;;;;4.57;2.20;;;;;;;;;;5059278;28;21171;-69
2022/08/11 13:05:31;;;;;;;7.13;2.00;;;;;;;;;;5032081;28;20464;-69
2022/08/11 13:08:00;;;;;;;6.40;5.27;;;;;;;;;;5048579;28;21078;-70
2022/08/11 13:13:14;;;;;;;2.40;1.70;;;;;;;;;;5051600;28;20461;-69
2022/08/11 13:15:45;;;;;;;2.67;1.87;;;;;;;;;;5051834;28;21155;-69
2022/08/11 13:18:16;;;;;;;3.17;1.80;;;;;;;;;;5049457;28;20688;-70
2022/08/11 13:20:45;;;;;;;5.70;2.13;;;;;;;;;;5042434;28;20466;-69
2022/08/11 13:23:13;;;;;;;3.20;2.30;;;;;;;;;;5037957;28;20457;-71
2022/08/11 13:25:41;;;;;;;4.03;2.10;;;;;;;;;;5042039;28;20572;-71
2022/08/11 13:28:09;;;;;;;4.57;2.40;;;;;;;;;;5048120;28;20469;-72
2022/08/11 13:33:22;;;;;;;8.50;1.63;;;;;;;;;;5042572;28;20596;-71
2022/08/11 13:35:54;;;;;;;2.30;1.50;;;;;;;;;;5038619;28;20500;-69
2022/08/11 13:38:24;;;;;;;2.47;1.27;;;;;;;;;;5044289;28;20465;-69
2022/08/11 13:40:53;;;;;;;5.70;1.77;;;;;;;;;;5038523;28;20455;-71
2022/08/11 13:43:21;;;;;;;9.00;2.67;;;;;;;;;;5031738;28;20453;-70
2022/08/11 13:48:43;;;;;;;3.17;1.50;;;;;;;;;;5033257;28;20444;-69
2022/08/11 13:51:32;;;;;;;3.87;2.33;;;;;;;;;;5036348;28;20454;-69
2022/08/11 13:54:00;;;;;;;6.00;4.93;;;;;;;;;;5043131;28;20523;-70
2022/08/11 13:56:28;;;;;;;4.50;3.10;;;;;;;;;;5030137;28;20524;-70
2022/08/11 13:59:06;;;;;;;2.90;1.37;;;;;;;;;;5043522;28;20615;-70
2022/08/11 14:01:38;;;;;;;4.30;2.77;;;;;;;;;;5041602;28;20485;-71
2022/08/11 14:04:09;;;;;;;4.10;1.17;;;;;;;;;;5042999;28;20479;-70
2022/08/11 14:06:38;;;;;;;2.80;1.70;;;;;;;;;;5030827;28;20501;-70
2022/08/11 14:09:09;;;;;;;7.33;1.40;;;;;;;;;;5037776;28;20527;-71
2022/08/11 14:14:23;;;;;;;2.60;1.47;;;;;;;;;;5047602;28;21031;-71
2022/08/11 14:16:53;;;;;;;2.97;1.33;;;;;;;;;;5049357;28;20855;-71
2022/08/11 14:19:21;;;;;;;4.83;1.90;;;;;;;;;;5048739;28;20870;-71
2022/08/11 14:22:07;;;;;;;3.23;1.70;;;;;;;;;;5052077;28;20485;-71
2022/08/11 14:24:36;;;;;;;4.43;1.60;;;;;;;;;;5050629;28;21025;-71
2022/08/11 14:27:05;;;;;;;4.90;2.00;;;;;;;;;;5036835;28;20560;-69
2022/08/11 14:29:37;;;;;;;3.27;1.40;;;;;;;;;;5029076;28;20707;-69
2022/08/11 14:32:12;;;;;;;3.50;1.53;;;;;;;;;;5033852;28;20523;-69
2022/08/11 14:34:40;;;;;;;2.97;1.43;;;;;;;;;;5049183;28;20448;-69
2022/08/11 14:37:10;;;;;;;2.77;1.70;;;;;;;;;;5057808;28;20453;-69
2022/08/11 14:39:40;;;;;;;3.10;1.73;;;;;;;;;;5068094;28;20453;-69
2022/08/11 14:47:45;;;;;;;3.70;1.83;;;;;;;;;;5051103;28;20476;-70
2022/08/11 14:50:16;;;;;;;2.20;1.30;;;;;;;;;;5043766;28;20514;-70
2022/08/11 14:52:49;;;;;;;4.50;2.33;;;;;;;;;;5050064;28;20465;-69
2022/08/11 14:58:02;;;;;;;3.20;1.70;;;;;;;;;;5048779;28;20511;-69
2022/08/11 15:00:31;;;;;;;1.90;1.10;;;;;;;;;;5042700;28;20481;-70
2022/08/11 15:03:09;;;;;;;6.00;1.70;;;;;;;;;;5041019;28;20558;-70
2022/08/11 15:05:40;;;;;;;2.50;1.30;;;;;;;;;;5032977;28;20473;-69
2022/08/11 15:08:10;;;;;;;6.63;2.77;;;;;;;;;;5051415;28;20881;-69
2022/08/11 15:10:37;;;;;;;2.60;1.50;;;;;;;;;;5050514;28;20480;-69
2022/08/11 15:13:05;;;;;;;9.60;1.50;;;;;;;;;;5039154;28;20469;-70
2022/08/11 15:18:25;;;;;;;3.17;1.50;;;;;;;;;;5050860;28;20822;-70
2022/08/11 15:37:41;;;;;;;2.47;1.40;;;;;;;;;;5064592;28;20433;-70
2022/08/11 15:45:51;;;;;;;4.10;1.20;;;;;;;;;;5051080;28;20578;-70
2022/08/11 15:48:21;;;;;;;2.27;1.37;;;;;;;;;;5053998;28;20460;-70
2022/08/11 15:50:53;;;;;;;4.47;1.57;;;;;;;;;;5051936;28;20474;-70
2022/08/11 15:53:25;;;;;;;3.23;1.40;;;;;;;;;;5052624;28;20469;-70
2022/08/11 15:55:57;;;;;;;3.27;1.33;;;;;;;;;;5050664;28;20471;-71
2022/08/11 16:04:12;;;;;;;2.93;1.97;;;;;;;;;;5049588;28;20747;-70
2022/08/11 16:06:43;;;;;;;5.00;2.00;;;;;;;;;;5051720;28;21058;-70
2022/08/11 16:09:12;;;;;;;3.50;1.60;;;;;;;;;;5069072;28;20557;-70
2022/08/11 16:11:42;;;;;;;4.03;1.80;;;;;;;;;;5054743;28;20453;-70
2022/08/11 16:17:07;;;;;;;6.10;1.77;;;;;;;;;;5054391;28;20450;-70
2022/08/11 16:19:35;;;;;;;3.13;1.27;;;;;;;;;;5030090;28;20481;-70
2022/08/11 16:22:04;;;;;;;3.43;1.60;;;;;;;;;;5030207;28;20743;-70
2022/08/11 16:24:32;;;;;;;2.50;1.60;;;;;;;;;;5038957;28;20895;-70
2022/08/11 16:27:02;;;;;;;2.17;1.27;;;;;;;;;;5039988;28;20552;-72
2022/08/11 16:29:30;;;;;;;2.83;1.60;;;;;;;;;;5050048;28;20465;-70
2022/08/11 16:40:15;;;;;;;2.90;1.63;;;;;;;;;;5051080;28;20436;-71
2022/08/11 16:48:18;;;;;;;3.63;1.70;;;;;;;;;;5046879;28;20449;-72
2022/08/11 16:50:46;;;;;;;3.70;1.43;;;;;;;;;;5050444;28;20793;-72
2022/08/11 16:53:14;;;;;;;5.03;1.50;;;;;;;;;;5050626;28;20461;-72
2022/08/11 16:55:44;;;;;;;2.83;1.13;;;;;;;;;;5050605;28;20488;-72
2022/08/11 17:01:03;;;;;;;4.47;2.03;;;;;;;;;;5035038;28;20444;-72
2022/08/11 17:14:45;;;;;;;3.13;1.43;;;;;;;;;;5028338;28;20469;-72
2022/08/11 17:17:15;;;;;;;5.63;2.07;;;;;;;;;;5029070;28;20643;-72
2022/08/11 17:19:45;;;;;;;3.07;2.10;;;;;;;;;;5029511;28;20442;-72
2022/08/11 17:24:59;;;;;;;2.63;1.47;;;;;;;;;;5025044;28;20449;-71
2022/08/11 17:27:28;;;;;;;4.97;1.80;;;;;;;;;;5029844;28;20486;-71
2022/08/11 17:29:58;;;;;;;3.20;1.60;;;;;;;;;;5031159;28;20554;-71
2022/08/11 17:35:30;;;;;;;2.70;1.27;;;;;;;;;;5027880;28;20540;-71
2022/08/11 17:38:03;;;;;;;3.93;1.27;;;;;;;;;;5028592;28;20451;-70
2022/08/11 17:40:31;;;;;;;2.13;1.00;;;;;;;;;;5030038;28;20450;-70
2022/08/11 17:48:34;;;;;;;2.60;1.50;;;;;;;;;;5049513;28;20444;-70
2022/08/11 17:51:03;;;;;;;3.70;1.60;;;;;;;;;;5050318;28;20460;-70
2022/08/11 18:01:49;;;;;;;2.70;1.77;;;;;;;;;;5046960;28;20884;-70
2022/08/11 18:04:17;;;;;;;6.23;2.30;;;;;;;;;;5048682;28;20973;-70
2022/08/11 18:06:47;;;;;;;2.50;1.30;;;;;;;;;;5045838;28;20901;-70
